Beatriz B — 5BUB4 — position and weather

sailwx.info

Track history (hours):
 
Tides and Currents Weather Stations Pressure Air Temp Water Temp Dewpoint Dewpoint Depression Visibility Wind Speed Wind Dir Waves Ship Positions

Beatriz B

Last reported at 2017-Nov-23 09:28 UTC. Time now 2017-Nov-23 09:34 UTC.
Position N 28°09' W 015°25'.

Length 158 m; draft 8.8 m.

Type: Ship (hazmat cat A). MMSI: 209056000.

Date/timePositionNaut miles runAvg speedWind from/ knotsBaromVisibWave heightAir tempDewpointWater temp
2017-Nov-23 09:28N 28°09' W 015°25'0 0.0
2017-Nov-23 08:58N 28°09' W 015°25'0 0.0
2017-Nov-23 08:28N 28°09' W 015°25'0 0.3
2017-Nov-23 08:00N 28°09' W 015°25'2 3.9
2017-Nov-23 07:30N 28°08' W 015°23'1 2.6
2017-Nov-23 07:00N 28°09' W 015°23'4 8.3
2017-Nov-23 06:30N 28°13' W 015°24'816.6
2017-Nov-23 06:00N 28°15' W 015°33'917.0
2017-Nov-23 05:30N 28°15' W 015°43'1615.6
2017-Nov-23 04:29N 28°18' W 016°01'816.4
2017-Nov-23 04:00N 28°23' W 016°07'815.8
2017-Nov-23 03:30N 28°28' W 016°14'  
2017-Nov-20 00:30N 39°35' W 009°44'815.5
2017-Nov-20 00:00N 39°43' W 009°42'261 7.9
2017-Nov-18 15:02N 43°54' W 008°04'215.6
2017-Nov-18 14:56N 43°53' W 008°02'1415.6
2017-Nov-18 14:02N 43°53' W 007°42'015.9
2017-Nov-18 14:01N 43°53' W 007°42'815.7
2017-Nov-18 13:31N 43°53' W 007°31'815.7
2017-Nov-18 13:00N 43°52' W 007°20'7415.3
2017-Nov-18 08:11N 43°50' W 005°38'315.1
2017-Nov-18 08:00N 43°50' W 005°34'815.3
2017-Nov-18 07:30N 43°49' W 005°23'1015.6
2017-Nov-18 06:52N 43°49' W 005°10'3515.5
2017-Nov-18 04:38N 43°44' W 004°22'215.4
2017-Nov-18 04:29N 43°44' W 004°19'715.4
2017-Nov-18 04:00N 43°42' W 004°09'815.3
2017-Nov-18 03:31N 43°41' W 003°59'815.1
2017-Nov-18 03:01N 43°39' W 003°48'815.4
2017-Nov-18 02:31N 43°37' W 003°38'714.9
2017-Nov-18 02:01N 43°34' W 003°29'815.2
2017-Nov-18 01:31N 43°30' W 003°20'815.3
2017-Nov-18 01:00N 43°26' W 003°11'714.3
2017-Nov-18 00:30N 43°22' W 003°03'1 2.3
2017-Nov-18 00:00N 43°21' W 003°03'0 0.0
2017-Nov-17 23:30N 43°21' W 003°03'0 0.0
2017-Nov-17 23:00N 43°21' W 003°03'0 0.0
2017-Nov-17 22:30N 43°21' W 003°03'0 0.0
2017-Nov-17 22:00N 43°21' W 003°03'0 0.0
2017-Nov-17 21:30N 43°21' W 003°03'0 0.0
2017-Nov-17 21:00N 43°21' W 003°03'0 0.0
2017-Nov-17 20:30N 43°21' W 003°03'0 0.0
2017-Nov-17 20:00N 43°21' W 003°03'0 0.0
2017-Nov-17 19:30N 43°21' W 003°03'0 0.0
2017-Nov-17 19:00N 43°21' W 003°03'0 0.0
2017-Nov-17 18:29N 43°21' W 003°03'0 0.0
2017-Nov-17 17:59N 43°21' W 003°03'0 0.1
2017-Nov-17 17:29N 43°21' W 003°03'0 0.1
2017-Nov-17 17:00N 43°21' W 003°03'0 0.0
2017-Nov-17 16:30N 43°21' W 003°03'0 0.0
2017-Nov-17 16:00N 43°21' W 003°03'0 0.0
2017-Nov-17 15:30N 43°21' W 003°03'0 0.0
2017-Nov-17 15:00N 43°21' W 003°03'0 0.0
2017-Nov-17 14:30N 43°21' W 003°03'0 0.0
2017-Nov-17 14:00N 43°21' W 003°03'0 0.0
2017-Nov-17 13:30N 43°21' W 003°03'0 0.0
2017-Nov-17 13:00N 43°21' W 003°03'0 0.0
2017-Nov-17 12:30N 43°21' W 003°03'0 0.0
2017-Nov-17 12:00N 43°21' W 003°03'0 0.0
2017-Nov-17 11:29N 43°21' W 003°03'0 0.0
2017-Nov-17 10:59N 43°21' W 003°03'0 0.0
2017-Nov-17 10:29N 43°21' W 003°03'0 0.0
2017-Nov-17 09:59N 43°21' W 003°03'0 0.0
2017-Nov-17 09:30N 43°21' W 003°03'0 0.0
2017-Nov-17 08:59N 43°21' W 003°03'0 0.0
2017-Nov-17 08:29N 43°21' W 003°03'0 0.0
2017-Nov-17 07:59N 43°21' W 003°03'0 0.0
2017-Nov-17 07:29N 43°21' W 003°03'0 0.0
2017-Nov-17 06:59N 43°21' W 003°03'0 0.0
2017-Nov-17 06:29N 43°21' W 003°03'0 0.0
2017-Nov-17 05:59N 43°21' W 003°03'0 0.0
2017-Nov-17 05:29N 43°21' W 003°03'0 0.5
2017-Nov-17 05:01N 43°21' W 003°03'2 4.7
2017-Nov-17 04:31N 43°23' W 003°05'510.3
2017-Nov-17 04:01N 43°26' W 003°10'4 8.3
2017-Nov-17 03:30N 43°29' W 003°15'5 9.0
2017-Nov-17 03:01N 43°31' W 003°20'5 9.3
2017-Nov-17 02:31N 43°34' W 003°25'510.4
2017-Nov-17 02:01N 43°36' W 003°32'510.5
2017-Nov-17 01:30N 43°37' W 003°39'510.4
2017-Nov-17 01:01N 43°38' W 003°46'510.5
2017-Nov-17 00:31N 43°40' W 003°53'510.8
2017-Nov-17 00:01N 43°41' W 004°00'611.0
2017-Nov-16 23:31N 43°42' W 004°07'610.9
2017-Nov-16 23:00N 43°43' W 004°15'811.2
2017-Nov-16 22:15N 43°45' W 004°26'311.3
2017-Nov-16 22:00N 43°45' W 004°30'611.3
2017-Nov-16 21:30N 43°47' W 004°38'711.2
2017-Nov-16 20:53N 43°48' W 004°47'411.1
2017-Nov-16 20:31N 43°48' W 004°53'911.0
2017-Nov-16 19:42N 43°49' W 005°05'311.3
2017-Nov-16 19:28N 43°49' W 005°09'511.1
2017-Nov-16 19:00N 43°49' W 005°16'611.1
2017-Nov-16 18:29N 43°49' W 005°24'511.2
2017-Nov-16 18:00N 43°49' W 005°32'711.3
2017-Nov-16 17:22N 43°49' W 005°41'511.1
2017-Nov-16 16:55N 43°49' W 005°49'611.0
2017-Nov-16 16:19N 43°49' W 005°58'1411.1
2017-Nov-16 15:03N 43°50' W 006°17'210.9
2017-Nov-16 14:50N 43°50' W 006°20'410.8
2017-Nov-16 14:26N 43°50' W 006°26'610.8
2017-Nov-16 13:54N 43°51' W 006°34'2711.1
2017-Nov-16 11:27N 43°52' W 007°12'511.0
2017-Nov-16 11:00N 43°52' W 007°19'611.3
2017-Nov-16 10:31N 43°53' W 007°27'611.2
2017-Nov-16 10:01N 43°53' W 007°34'611.2
2017-Nov-16 09:31N 43°54' W 007°42'1210.9
2017-Nov-16 08:27N 43°54' W 007°58'  
2017-Nov-14 00:06N 37°52' W 011°06'110.8
2017-Nov-14 00:00N 37°51' W 011°07'511.0
2017-Nov-13 23:30N 37°46' W 011°08'511.0
2017-Nov-13 23:00N 37°40' W 011°10'1111.0
2017-Nov-13 21:59N 37°29' W 011°12'  
Track history (hours):
 
Tides and Currents Weather Stations Pressure Air Temp Water Temp Dewpoint Dewpoint Depression Visibility Wind Speed Wind Dir Waves Ship Positions

Beatriz B

Last reported at 2017-Nov-23 09:28 UTC. Time now 2017-Nov-23 09:34 UTC.
Position N 28°09' W 015°25'.

Length 158 m; draft 8.8 m.

Type: Ship (hazmat cat A). MMSI: 209056000.

Date/timePositionNaut miles runAvg speedWind from/ knotsBaromVisibWave heightAir tempDewpointWater temp
2017-Nov-23 09:28N 28°09' W 015°25'0 0.0
2017-Nov-23 08:58N 28°09' W 015°25'0 0.0
2017-Nov-23 08:28N 28°09' W 015°25'0 0.3
2017-Nov-23 08:00N 28°09' W 015°25'2 3.9
2017-Nov-23 07:30N 28°08' W 015°23'1 2.6
2017-Nov-23 07:00N 28°09' W 015°23'4 8.3
2017-Nov-23 06:30N 28°13' W 015°24'816.6
2017-Nov-23 06:00N 28°15' W 015°33'917.0
2017-Nov-23 05:30N 28°15' W 015°43'1615.6
2017-Nov-23 04:29N 28°18' W 016°01'816.4
2017-Nov-23 04:00N 28°23' W 016°07'815.8
2017-Nov-23 03:30N 28°28' W 016°14'  
2017-Nov-20 00:30N 39°35' W 009°44'815.5
2017-Nov-20 00:00N 39°43' W 009°42'261 7.9
2017-Nov-18 15:02N 43°54' W 008°04'215.6
2017-Nov-18 14:56N 43°53' W 008°02'1415.6
2017-Nov-18 14:02N 43°53' W 007°42'015.9
2017-Nov-18 14:01N 43°53' W 007°42'815.7
2017-Nov-18 13:31N 43°53' W 007°31'815.7
2017-Nov-18 13:00N 43°52' W 007°20'7415.3
2017-Nov-18 08:11N 43°50' W 005°38'315.1
2017-Nov-18 08:00N 43°50' W 005°34'815.3
2017-Nov-18 07:30N 43°49' W 005°23'1015.6
2017-Nov-18 06:52N 43°49' W 005°10'3515.5
2017-Nov-18 04:38N 43°44' W 004°22'215.4
2017-Nov-18 04:29N 43°44' W 004°19'715.4
2017-Nov-18 04:00N 43°42' W 004°09'815.3
2017-Nov-18 03:31N 43°41' W 003°59'815.1
2017-Nov-18 03:01N 43°39' W 003°48'815.4
2017-Nov-18 02:31N 43°37' W 003°38'714.9
2017-Nov-18 02:01N 43°34' W 003°29'815.2
2017-Nov-18 01:31N 43°30' W 003°20'815.3
2017-Nov-18 01:00N 43°26' W 003°11'714.3
2017-Nov-18 00:30N 43°22' W 003°03'1 2.3
2017-Nov-18 00:00N 43°21' W 003°03'0 0.0
2017-Nov-17 23:30N 43°21' W 003°03'0 0.0
2017-Nov-17 23:00N 43°21' W 003°03'0 0.0
2017-Nov-17 22:30N 43°21' W 003°03'0 0.0
2017-Nov-17 22:00N 43°21' W 003°03'0 0.0
2017-Nov-17 21:30N 43°21' W 003°03'0 0.0
2017-Nov-17 21:00N 43°21' W 003°03'0 0.0
2017-Nov-17 20:30N 43°21' W 003°03'0 0.0
2017-Nov-17 20:00N 43°21' W 003°03'0 0.0
2017-Nov-17 19:30N 43°21' W 003°03'0 0.0
2017-Nov-17 19:00N 43°21' W 003°03'0 0.0
2017-Nov-17 18:29N 43°21' W 003°03'0 0.0
2017-Nov-17 17:59N 43°21' W 003°03'0 0.1
2017-Nov-17 17:29N 43°21' W 003°03'0 0.1
2017-Nov-17 17:00N 43°21' W 003°03'0 0.0
2017-Nov-17 16:30N 43°21' W 003°03'0 0.0
2017-Nov-17 16:00N 43°21' W 003°03'0 0.0
2017-Nov-17 15:30N 43°21' W 003°03'0 0.0
2017-Nov-17 15:00N 43°21' W 003°03'0 0.0
2017-Nov-17 14:30N 43°21' W 003°03'0 0.0
2017-Nov-17 14:00N 43°21' W 003°03'0 0.0
2017-Nov-17 13:30N 43°21' W 003°03'0 0.0
2017-Nov-17 13:00N 43°21' W 003°03'0 0.0
2017-Nov-17 12:30N 43°21' W 003°03'0 0.0
2017-Nov-17 12:00N 43°21' W 003°03'0 0.0
2017-Nov-17 11:29N 43°21' W 003°03'0 0.0
2017-Nov-17 10:59N 43°21' W 003°03'0 0.0
2017-Nov-17 10:29N 43°21' W 003°03'0 0.0
2017-Nov-17 09:59N 43°21' W 003°03'0 0.0
2017-Nov-17 09:30N 43°21' W 003°03'0 0.0
2017-Nov-17 08:59N 43°21' W 003°03'0 0.0
2017-Nov-17 08:29N 43°21' W 003°03'0 0.0
2017-Nov-17 07:59N 43°21' W 003°03'0 0.0
2017-Nov-17 07:29N 43°21' W 003°03'0 0.0
2017-Nov-17 06:59N 43°21' W 003°03'0 0.0
2017-Nov-17 06:29N 43°21' W 003°03'0 0.0
2017-Nov-17 05:59N 43°21' W 003°03'0 0.0
2017-Nov-17 05:29N 43°21' W 003°03'0 0.5
2017-Nov-17 05:01N 43°21' W 003°03'2 4.7
2017-Nov-17 04:31N 43°23' W 003°05'510.3
2017-Nov-17 04:01N 43°26' W 003°10'4 8.3
2017-Nov-17 03:30N 43°29' W 003°15'5 9.0
2017-Nov-17 03:01N 43°31' W 003°20'5 9.3
2017-Nov-17 02:31N 43°34' W 003°25'510.4
2017-Nov-17 02:01N 43°36' W 003°32'510.5
2017-Nov-17 01:30N 43°37' W 003°39'510.4
2017-Nov-17 01:01N 43°38' W 003°46'510.5
2017-Nov-17 00:31N 43°40' W 003°53'510.8
2017-Nov-17 00:01N 43°41' W 004°00'611.0
2017-Nov-16 23:31N 43°42' W 004°07'610.9
2017-Nov-16 23:00N 43°43' W 004°15'811.2
2017-Nov-16 22:15N 43°45' W 004°26'311.3
2017-Nov-16 22:00N 43°45' W 004°30'611.3
2017-Nov-16 21:30N 43°47' W 004°38'711.2
2017-Nov-16 20:53N 43°48' W 004°47'411.1
2017-Nov-16 20:31N 43°48' W 004°53'911.0
2017-Nov-16 19:42N 43°49' W 005°05'311.3
2017-Nov-16 19:28N 43°49' W 005°09'511.1
2017-Nov-16 19:00N 43°49' W 005°16'611.1
2017-Nov-16 18:29N 43°49' W 005°24'511.2
2017-Nov-16 18:00N 43°49' W 005°32'711.3
2017-Nov-16 17:22N 43°49' W 005°41'511.1
2017-Nov-16 16:55N 43°49' W 005°49'611.0
2017-Nov-16 16:19N 43°49' W 005°58'1411.1
2017-Nov-16 15:03N 43°50' W 006°17'210.9
2017-Nov-16 14:50N 43°50' W 006°20'410.8
2017-Nov-16 14:26N 43°50' W 006°26'610.8
2017-Nov-16 13:54N 43°51' W 006°34'2711.1
2017-Nov-16 11:27N 43°52' W 007°12'511.0
2017-Nov-16 11:00N 43°52' W 007°19'611.3
2017-Nov-16 10:31N 43°53' W 007°27'611.2
2017-Nov-16 10:01N 43°53' W 007°34'611.2
2017-Nov-16 09:31N 43°54' W 007°42'1210.9
2017-Nov-16 08:27N 43°54' W 007°58'  
2017-Nov-14 00:06N 37°52' W 011°06'110.8
2017-Nov-14 00:00N 37°51' W 011°07'511.0
2017-Nov-13 23:30N 37°46' W 011°08'511.0
2017-Nov-13 23:00N 37°40' W 011°10'1111.0
2017-Nov-13 21:59N 37°29' W 011°12'  

Dump ship's entire track history